sensor_id;sensor_type;location;lat;lon;timestamp;P1;durP1;ratioP1;P2;durP2;ratioP2
73120;SDS011;61307;49.628;-1.624;2024-02-23T00:00:27;3.92;;;1.35;;
73120;SDS011;61307;49.628;-1.624;2024-02-23T00:02:54;3.65;;;1.23;;
73120;SDS011;61307;49.628;-1.624;2024-02-23T00:05:23;3.90;;;1.25;;
73120;SDS011;61307;49.628;-1.624;2024-02-23T00:07:50;5.68;;;1.27;;
73120;SDS011;61307;49.628;-1.624;2024-02-23T00:10:17;3.70;;;1.40;;
73120;SDS011;61307;49.628;-1.624;2024-02-23T00:12:45;3.03;;;1.20;;
73120;SDS011;61307;49.628;-1.624;2024-02-23T00:15:13;5.55;;;1.40;;
73120;SDS011;61307;49.628;-1.624;2024-02-23T00:17:40;6.13;;;1.35;;
73120;SDS011;61307;49.628;-1.624;2024-02-23T00:20:08;3.55;;;1.15;;
73120;SDS011;61307;49.628;-1.624;2024-02-23T00:22:36;6.03;;;1.55;;
73120;SDS011;61307;49.628;-1.624;2024-02-23T00:25:04;6.03;;;1.40;;
73120;SDS011;61307;49.628;-1.624;2024-02-23T00:27:31;4.80;;;1.23;;
73120;SDS011;61307;49.628;-1.624;2024-02-23T00:29:59;4.72;;;1.33;;
73120;SDS011;61307;49.628;-1.624;2024-02-23T00:32:26;4.45;;;1.40;;
73120;SDS011;61307;49.628;-1.624;2024-02-23T00:34:53;3.58;;;1.35;;
73120;SDS011;61307;49.628;-1.624;2024-02-23T00:37:20;7.93;;;1.50;;
73120;SDS011;61307;49.628;-1.624;2024-02-23T00:39:47;3.47;;;1.40;;
73120;SDS011;61307;49.628;-1.624;2024-02-23T00:42:14;6.03;;;1.58;;
73120;SDS011;61307;49.628;-1.624;2024-02-23T00:44:41;3.92;;;1.33;;
73120;SDS011;61307;49.628;-1.624;2024-02-23T00:47:09;5.63;;;1.60;;
73120;SDS011;61307;49.628;-1.624;2024-02-23T00:49:36;3.67;;;1.10;;
73120;SDS011;61307;49.628;-1.624;2024-02-23T00:52:03;5.45;;;1.50;;
73120;SDS011;61307;49.628;-1.624;2024-02-23T00:54:31;3.78;;;1.40;;
73120;SDS011;61307;49.628;-1.624;2024-02-23T00:56:57;4.57;;;1.23;;
73120;SDS011;61307;49.628;-1.624;2024-02-23T00:59:25;6.80;;;1.48;;
73120;SDS011;61307;49.628;-1.624;2024-02-23T01:01:52;7.70;;;1.40;;
73120;SDS011;61307;49.628;-1.624;2024-02-23T01:04:20;3.60;;;1.08;;
73120;SDS011;61307;49.628;-1.624;2024-02-23T01:06:47;5.22;;;1.48;;
73120;SDS011;61307;49.628;-1.624;2024-02-23T01:09:14;5.05;;;1.25;;
73120;SDS011;61307;49.628;-1.624;2024-02-23T01:11:42;6.82;;;1.40;;
73120;SDS011;61307;49.628;-1.624;2024-02-23T01:14:09;3.53;;;1.02;;
73120;SDS011;61307;49.628;-1.624;2024-02-23T01:16:36;4.60;;;1.30;;
73120;SDS011;61307;49.628;-1.624;2024-02-23T01:19:03;6.15;;;2.13;;
73120;SDS011;61307;49.628;-1.624;2024-02-23T01:21:31;3.92;;;1.23;;
73120;SDS011;61307;49.628;-1.624;2024-02-23T01:23:58;4.90;;;1.38;;
73120;SDS011;61307;49.628;-1.624;2024-02-23T01:26:25;5.25;;;1.35;;
73120;SDS011;61307;49.628;-1.624;2024-02-23T01:28:52;3.97;;;1.05;;
73120;SDS011;61307;49.628;-1.624;2024-02-23T01:31:19;5.80;;;1.65;;
73120;SDS011;61307;49.628;-1.624;2024-02-23T01:33:46;3.47;;;1.10;;
73120;SDS011;61307;49.628;-1.624;2024-02-23T01:36:14;1.80;;;1.05;;
73120;SDS011;61307;49.628;-1.624;2024-02-23T01:38:43;6.35;;;1.23;;
73120;SDS011;61307;49.628;-1.624;2024-02-23T01:41:09;3.85;;;1.08;;
73120;SDS011;61307;49.628;-1.624;2024-02-23T01:43:37;3.85;;;0.93;;
73120;SDS011;61307;49.628;-1.624;2024-02-23T01:46:05;4.43;;;1.08;;
73120;SDS011;61307;49.628;-1.624;2024-02-23T01:48:32;5.90;;;1.33;;
73120;SDS011;61307;49.628;-1.624;2024-02-23T01:50:59;4.38;;;1.20;;
73120;SDS011;61307;49.628;-1.624;2024-02-23T01:53:27;3.47;;;1.13;;
73120;SDS011;61307;49.628;-1.624;2024-02-23T01:55:56;2.90;;;1.00;;
73120;SDS011;61307;49.628;-1.624;2024-02-23T01:58:24;5.20;;;0.98;;
73120;SDS011;61307;49.628;-1.624;2024-02-23T02:00:51;3.90;;;1.25;;
73120;SDS011;61307;49.628;-1.624;2024-02-23T02:03:18;4.18;;;1.20;;
73120;SDS011;61307;49.628;-1.624;2024-02-23T02:05:45;4.43;;;1.40;;
73120;SDS011;61307;49.628;-1.624;2024-02-23T02:08:14;5.15;;;1.50;;
73120;SDS011;61307;49.628;-1.624;2024-02-23T02:10:42;5.15;;;1.30;;
73120;SDS011;61307;49.628;-1.624;2024-02-23T02:13:11;3.90;;;1.35;;
73120;SDS011;61307;49.628;-1.624;2024-02-23T02:15:39;5.50;;;1.45;;
73120;SDS011;61307;49.628;-1.624;2024-02-23T02:18:05;4.57;;;1.08;;
73120;SDS011;61307;49.628;-1.624;2024-02-23T02:20:33;2.95;;;1.20;;
73120;SDS011;61307;49.628;-1.624;2024-02-23T02:23:02;6.03;;;1.65;;
73120;SDS011;61307;49.628;-1.624;2024-02-23T02:25:29;6.43;;;1.38;;
73120;SDS011;61307;49.628;-1.624;2024-02-23T02:27:56;5.30;;;1.38;;
73120;SDS011;61307;49.628;-1.624;2024-02-23T02:30:24;4.40;;;1.20;;
73120;SDS011;61307;49.628;-1.624;2024-02-23T02:32:51;5.20;;;1.10;;
73120;SDS011;61307;49.628;-1.624;2024-02-23T02:35:18;5.63;;;1.45;;
73120;SDS011;61307;49.628;-1.624;2024-02-23T02:37:45;8.65;;;1.40;;
73120;SDS011;61307;49.628;-1.624;2024-02-23T02:40:13;4.35;;;1.80;;
73120;SDS011;61307;49.628;-1.624;2024-02-23T02:42:40;4.05;;;1.30;;
73120;SDS011;61307;49.628;-1.624;2024-02-23T02:45:07;4.97;;;1.23;;
73120;SDS011;61307;49.628;-1.624;2024-02-23T02:47:35;6.15;;;1.30;;
73120;SDS011;61307;49.628;-1.624;2024-02-23T02:50:02;3.53;;;1.45;;
73120;SDS011;61307;49.628;-1.624;2024-02-23T02:52:31;5.18;;;1.60;;
73120;SDS011;61307;49.628;-1.624;2024-02-23T02:54:58;4.78;;;1.70;;
73120;SDS011;61307;49.628;-1.624;2024-02-23T02:57:25;5.20;;;1.30;;
73120;SDS011;61307;49.628;-1.624;2024-02-23T02:59:52;3.78;;;1.20;;
73120;SDS011;61307;49.628;-1.624;2024-02-23T03:02:19;4.82;;;1.20;;
73120;SDS011;61307;49.628;-1.624;2024-02-23T03:04:50;6.30;;;1.63;;
73120;SDS011;61307;49.628;-1.624;2024-02-23T03:07:19;5.05;;;1.50;;
73120;SDS011;61307;49.628;-1.624;2024-02-23T03:09:46;3.75;;;1.30;;
73120;SDS011;61307;49.628;-1.624;2024-02-23T03:12:13;5.00;;;1.50;;
73120;SDS011;61307;49.628;-1.624;2024-02-23T03:14:40;5.30;;;1.30;;
73120;SDS011;61307;49.628;-1.624;2024-02-23T03:17:07;3.80;;;1.38;;
73120;SDS011;61307;49.628;-1.624;2024-02-23T03:19:35;7.53;;;1.60;;
73120;SDS011;61307;49.628;-1.624;2024-02-23T03:22:03;8.25;;;1.63;;
73120;SDS011;61307;49.628;-1.624;2024-02-23T03:24:31;4.20;;;1.42;;
73120;SDS011;61307;49.628;-1.624;2024-02-23T03:26:58;5.63;;;1.70;;
73120;SDS011;61307;49.628;-1.624;2024-02-23T03:29:24;3.95;;;1.23;;
73120;SDS011;61307;49.628;-1.624;2024-02-23T03:31:54;3.33;;;1.27;;
73120;SDS011;61307;49.628;-1.624;2024-02-23T03:34:21;4.47;;;1.35;;
73120;SDS011;61307;49.628;-1.624;2024-02-23T03:36:48;5.90;;;1.52;;
73120;SDS011;61307;49.628;-1.624;2024-02-23T03:39:16;3.97;;;1.20;;
73120;SDS011;61307;49.628;-1.624;2024-02-23T03:41:43;4.75;;;1.50;;
73120;SDS011;61307;49.628;-1.624;2024-02-23T03:44:10;5.30;;;1.30;;
73120;SDS011;61307;49.628;-1.624;2024-02-23T03:46:37;6.47;;;1.60;;
73120;SDS011;61307;49.628;-1.624;2024-02-23T03:49:04;3.30;;;1.33;;
73120;SDS011;61307;49.628;-1.624;2024-02-23T03:51:31;3.67;;;1.20;;
73120;SDS011;61307;49.628;-1.624;2024-02-23T03:54:00;6.13;;;1.40;;
73120;SDS011;61307;49.628;-1.624;2024-02-23T03:56:28;4.30;;;1.17;;
73120;SDS011;61307;49.628;-1.624;2024-02-23T03:58:55;4.28;;;1.13;;
73120;SDS011;61307;49.628;-1.624;2024-02-23T04:01:22;4.93;;;1.10;;
73120;SDS011;61307;49.628;-1.624;2024-02-23T04:03:49;4.38;;;1.20;;
73120;SDS011;61307;49.628;-1.624;2024-02-23T04:06:16;7.25;;;1.27;;
73120;SDS011;61307;49.628;-1.624;2024-02-23T04:08:43;7.20;;;1.00;;
73120;SDS011;61307;49.628;-1.624;2024-02-23T04:11:12;5.43;;;1.30;;
73120;SDS011;61307;49.628;-1.624;2024-02-23T04:13:40;5.28;;;1.20;;
73120;SDS011;61307;49.628;-1.624;2024-02-23T04:16:07;5.80;;;1.60;;
73120;SDS011;61307;49.628;-1.624;2024-02-23T04:18:34;4.63;;;1.20;;
73120;SDS011;61307;49.628;-1.624;2024-02-23T04:21:01;4.28;;;1.30;;
73120;SDS011;61307;49.628;-1.624;2024-02-23T04:23:28;3.15;;;1.10;;
73120;SDS011;61307;49.628;-1.624;2024-02-23T04:25:55;4.07;;;1.23;;
73120;SDS011;61307;49.628;-1.624;2024-02-23T04:28:22;4.13;;;1.10;;
73120;SDS011;61307;49.628;-1.624;2024-02-23T04:30:52;2.83;;;1.20;;
73120;SDS011;61307;49.628;-1.624;2024-02-23T04:33:19;4.80;;;1.50;;
73120;SDS011;61307;49.628;-1.624;2024-02-23T04:35:46;4.90;;;1.30;;
73120;SDS011;61307;49.628;-1.624;2024-02-23T04:38:13;3.33;;;1.20;;
73120;SDS011;61307;49.628;-1.624;2024-02-23T04:40:40;6.82;;;1.25;;
73120;SDS011;61307;49.628;-1.624;2024-02-23T04:43:07;7.28;;;1.17;;
73120;SDS011;61307;49.628;-1.624;2024-02-23T04:45:33;4.53;;;1.42;;
73120;SDS011;61307;49.628;-1.624;2024-02-23T04:48:02;7.00;;;1.20;;
73120;SDS011;61307;49.628;-1.624;2024-02-23T04:50:29;3.08;;;1.00;;
73120;SDS011;61307;49.628;-1.624;2024-02-23T04:52:56;4.03;;;1.10;;
73120;SDS011;61307;49.628;-1.624;2024-02-23T04:55:23;6.53;;;1.48;;
73120;SDS011;61307;49.628;-1.624;2024-02-23T04:57:50;4.65;;;1.27;;
73120;SDS011;61307;49.628;-1.624;2024-02-23T05:00:17;3.80;;;1.23;;
73120;SDS011;61307;49.628;-1.624;2024-02-23T05:02:45;5.10;;;1.20;;
73120;SDS011;61307;49.628;-1.624;2024-02-23T05:05:13;5.40;;;0.95;;
73120;SDS011;61307;49.628;-1.624;2024-02-23T05:07:40;5.00;;;1.10;;
73120;SDS011;61307;49.628;-1.624;2024-02-23T05:10:07;4.85;;;1.05;;
73120;SDS011;61307;49.628;-1.624;2024-02-23T05:12:35;3.47;;;1.05;;
73120;SDS011;61307;49.628;-1.624;2024-02-23T05:15:02;3.88;;;1.30;;
73120;SDS011;61307;49.628;-1.624;2024-02-23T05:17:29;4.93;;;1.33;;
73120;SDS011;61307;49.628;-1.624;2024-02-23T05:19:56;4.55;;;0.93;;
73120;SDS011;61307;49.628;-1.624;2024-02-23T05:22:25;4.93;;;1.50;;
73120;SDS011;61307;49.628;-1.624;2024-02-23T05:24:52;4.63;;;1.30;;
73120;SDS011;61307;49.628;-1.624;2024-02-23T05:27:19;3.80;;;1.30;;
73120;SDS011;61307;49.628;-1.624;2024-02-23T05:29:46;4.82;;;1.30;;
73120;SDS011;61307;49.628;-1.624;2024-02-23T05:32:13;4.72;;;1.27;;
73120;SDS011;61307;49.628;-1.624;2024-02-23T05:34:41;5.43;;;1.17;;
73120;SDS011;61307;49.628;-1.624;2024-02-23T05:37:08;5.38;;;1.50;;
73120;SDS011;61307;49.628;-1.624;2024-02-23T05:39:36;3.30;;;1.33;;
73120;SDS011;61307;49.628;-1.624;2024-02-23T05:42:03;6.20;;;1.48;;
73120;SDS011;61307;49.628;-1.624;2024-02-23T05:44:30;5.78;;;1.50;;
73120;SDS011;61307;49.628;-1.624;2024-02-23T05:46:57;3.17;;;1.00;;
73120;SDS011;61307;49.628;-1.624;2024-02-23T05:49:24;4.38;;;1.23;;
73120;SDS011;61307;49.628;-1.624;2024-02-23T05:51:51;4.35;;;1.17;;
73120;SDS011;61307;49.628;-1.624;2024-02-23T05:54:18;4.55;;;1.30;;
73120;SDS011;61307;49.628;-1.624;2024-02-23T05:56:46;3.05;;;1.10;;
73120;SDS011;61307;49.628;-1.624;2024-02-23T05:59:14;3.95;;;1.20;;
73120;SDS011;61307;49.628;-1.624;2024-02-23T06:01:40;8.63;;;1.48;;
73120;SDS011;61307;49.628;-1.624;2024-02-23T06:04:07;6.57;;;1.48;;
73120;SDS011;61307;49.628;-1.624;2024-02-23T06:06:34;5.53;;;1.40;;
73120;SDS011;61307;49.628;-1.624;2024-02-23T06:09:01;4.97;;;1.35;;
73120;SDS011;61307;49.628;-1.624;2024-02-23T06:11:28;5.88;;;1.27;;
73120;SDS011;61307;49.628;-1.624;2024-02-23T06:13:56;6.40;;;1.48;;
73120;SDS011;61307;49.628;-1.624;2024-02-23T06:16:23;4.70;;;1.23;;
73120;SDS011;61307;49.628;-1.624;2024-02-23T06:18:50;5.25;;;1.48;;
73120;SDS011;61307;49.628;-1.624;2024-02-23T06:21:17;3.88;;;1.42;;
73120;SDS011;61307;49.628;-1.624;2024-02-23T06:23:44;2.95;;;1.13;;
73120;SDS011;61307;49.628;-1.624;2024-02-23T06:26:11;5.25;;;1.75;;
73120;SDS011;61307;49.628;-1.624;2024-02-23T06:28:39;3.45;;;1.30;;
73120;SDS011;61307;49.628;-1.624;2024-02-23T06:31:09;3.25;;;1.33;;
73120;SDS011;61307;49.628;-1.624;2024-02-23T06:33:36;7.05;;;1.38;;
73120;SDS011;61307;49.628;-1.624;2024-02-23T06:36:03;3.75;;;1.40;;
73120;SDS011;61307;49.628;-1.624;2024-02-23T06:38:31;3.38;;;1.23;;
73120;SDS011;61307;49.628;-1.624;2024-02-23T06:40:57;4.88;;;1.30;;
73120;SDS011;61307;49.628;-1.624;2024-02-23T06:43:25;4.43;;;1.23;;
73120;SDS011;61307;49.628;-1.624;2024-02-23T06:45:52;5.15;;;1.42;;
73120;SDS011;61307;49.628;-1.624;2024-02-23T06:48:20;3.33;;;1.25;;
73120;SDS011;61307;49.628;-1.624;2024-02-23T06:50:47;5.95;;;1.75;;
73120;SDS011;61307;49.628;-1.624;2024-02-23T06:53:14;5.22;;;1.50;;
73120;SDS011;61307;49.628;-1.624;2024-02-23T06:55:41;3.47;;;1.20;;
73120;SDS011;61307;49.628;-1.624;2024-02-23T06:58:08;3.78;;;1.48;;
73120;SDS011;61307;49.628;-1.624;2024-02-23T07:00:35;6.15;;;1.30;;
73120;SDS011;61307;49.628;-1.624;2024-02-23T07:03:03;3.60;;;1.25;;
73120;SDS011;61307;49.628;-1.624;2024-02-23T07:05:32;2.95;;;0.98;;
73120;SDS011;61307;49.628;-1.624;2024-02-23T07:08:00;3.90;;;1.30;;
73120;SDS011;61307;49.628;-1.624;2024-02-23T07:10:27;4.07;;;1.33;;
73120;SDS011;61307;49.628;-1.624;2024-02-23T07:12:54;5.32;;;1.40;;
73120;SDS011;61307;49.628;-1.624;2024-02-23T07:15:23;2.80;;;1.40;;
73120;SDS011;61307;49.628;-1.624;2024-02-23T07:17:51;3.00;;;0.98;;
73120;SDS011;61307;49.628;-1.624;2024-02-23T07:20:18;5.25;;;1.20;;
73120;SDS011;61307;49.628;-1.624;2024-02-23T07:22:46;3.03;;;1.23;;
73120;SDS011;61307;49.628;-1.624;2024-02-23T07:25:15;4.18;;;1.10;;
73120;SDS011;61307;49.628;-1.624;2024-02-23T07:27:42;2.90;;;1.20;;
73120;SDS011;61307;49.628;-1.624;2024-02-23T07:30:10;3.60;;;1.20;;
73120;SDS011;61307;49.628;-1.624;2024-02-23T07:32:37;3.92;;;1.35;;
73120;SDS011;61307;49.628;-1.624;2024-02-23T07:35:05;2.45;;;1.23;;
73120;SDS011;61307;49.628;-1.624;2024-02-23T07:37:33;3.05;;;1.13;;
73120;SDS011;61307;49.628;-1.624;2024-02-23T07:40:01;3.47;;;1.30;;
73120;SDS011;61307;49.628;-1.624;2024-02-23T07:42:29;3.75;;;1.20;;
73120;SDS011;61307;49.628;-1.624;2024-02-23T07:44:56;3.70;;;1.13;;
73120;SDS011;61307;49.628;-1.624;2024-02-23T07:47:23;4.28;;;1.05;;
73120;SDS011;61307;49.628;-1.624;2024-02-23T07:49:52;2.85;;;1.25;;
73120;SDS011;61307;49.628;-1.624;2024-02-23T07:52:19;6.15;;;1.25;;
73120;SDS011;61307;49.628;-1.624;2024-02-23T07:54:48;4.65;;;1.60;;
73120;SDS011;61307;49.628;-1.624;2024-02-23T07:57:18;4.57;;;1.38;;
73120;SDS011;61307;49.628;-1.624;2024-02-23T07:59:45;3.17;;;1.30;;
73120;SDS011;61307;49.628;-1.624;2024-02-23T08:02:13;3.22;;;1.30;;
73120;SDS011;61307;49.628;-1.624;2024-02-23T08:04:40;4.32;;;1.23;;
73120;SDS011;61307;49.628;-1.624;2024-02-23T08:07:08;2.75;;;1.20;;
73120;SDS011;61307;49.628;-1.624;2024-02-23T08:09:34;4.65;;;1.90;;
73120;SDS011;61307;49.628;-1.624;2024-02-23T08:12:02;3.28;;;1.38;;
73120;SDS011;61307;49.628;-1.624;2024-02-23T08:14:30;3.45;;;1.25;;
73120;SDS011;61307;49.628;-1.624;2024-02-23T08:16:58;5.38;;;1.42;;
73120;SDS011;61307;49.628;-1.624;2024-02-23T08:19:24;3.13;;;1.25;;
73120;SDS011;61307;49.628;-1.624;2024-02-23T08:21:51;3.20;;;1.02;;
73120;SDS011;61307;49.628;-1.624;2024-02-23T08:24:18;3.08;;;1.20;;
73120;SDS011;61307;49.628;-1.624;2024-02-23T08:26:45;3.95;;;1.30;;
73120;SDS011;61307;49.628;-1.624;2024-02-23T08:29:13;3.42;;;1.17;;
73120;SDS011;61307;49.628;-1.624;2024-02-23T08:31:41;3.28;;;1.33;;
73120;SDS011;61307;49.628;-1.624;2024-02-23T08:34:08;5.53;;;1.40;;
73120;SDS011;61307;49.628;-1.624;2024-02-23T08:36:35;4.72;;;1.55;;
73120;SDS011;61307;49.628;-1.624;2024-02-23T08:39:02;2.25;;;1.10;;
73120;SDS011;61307;49.628;-1.624;2024-02-23T08:41:29;5.88;;;1.20;;
73120;SDS011;61307;49.628;-1.624;2024-02-23T08:43:56;6.05;;;1.20;;
73120;SDS011;61307;49.628;-1.624;2024-02-23T08:46:23;8.50;;;1.13;;
73120;SDS011;61307;49.628;-1.624;2024-02-23T08:48:52;2.90;;;1.10;;
73120;SDS011;61307;49.628;-1.624;2024-02-23T08:51:18;4.65;;;1.20;;
73120;SDS011;61307;49.628;-1.624;2024-02-23T08:53:45;6.88;;;1.35;;
73120;SDS011;61307;49.628;-1.624;2024-02-23T08:56:12;5.07;;;1.20;;
73120;SDS011;61307;49.628;-1.624;2024-02-23T08:58:41;3.20;;;1.10;;
73120;SDS011;61307;49.628;-1.624;2024-02-23T09:01:08;2.42;;;1.20;;
73120;SDS011;61307;49.628;-1.624;2024-02-23T09:03:35;3.47;;;1.05;;
73120;SDS011;61307;49.628;-1.624;2024-02-23T09:06:04;2.63;;;0.80;;
73120;SDS011;61307;49.628;-1.624;2024-02-23T09:08:31;4.15;;;1.05;;
73120;SDS011;61307;49.628;-1.624;2024-02-23T09:10:58;3.28;;;1.10;;
73120;SDS011;61307;49.628;-1.624;2024-02-23T09:13:24;4.38;;;1.30;;
73120;SDS011;61307;49.628;-1.624;2024-02-23T09:15:52;4.13;;;1.30;;
73120;SDS011;61307;49.628;-1.624;2024-02-23T09:18:19;5.45;;;1.48;;
73120;SDS011;61307;49.628;-1.624;2024-02-23T09:20:46;4.03;;;0.82;;
73120;SDS011;61307;49.628;-1.624;2024-02-23T09:23:14;4.88;;;1.20;;
73120;SDS011;61307;49.628;-1.624;2024-02-23T09:25:41;3.28;;;1.10;;
73120;SDS011;61307;49.628;-1.624;2024-02-23T09:28:08;16.38;;;1.10;;
73120;SDS011;61307;49.628;-1.624;2024-02-23T09:30:36;3.08;;;1.00;;
73120;SDS011;61307;49.628;-1.624;2024-02-23T09:33:04;2.65;;;0.90;;
73120;SDS011;61307;49.628;-1.624;2024-02-23T09:35:31;3.58;;;1.10;;
73120;SDS011;61307;49.628;-1.624;2024-02-23T09:37:58;4.68;;;1.23;;
73120;SDS011;61307;49.628;-1.624;2024-02-23T09:40:26;7.53;;;0.90;;
73120;SDS011;61307;49.628;-1.624;2024-02-23T09:42:55;3.05;;;0.82;;
73120;SDS011;61307;49.628;-1.624;2024-02-23T09:45:24;4.07;;;1.02;;
73120;SDS011;61307;49.628;-1.624;2024-02-23T09:47:51;3.45;;;1.17;;
73120;SDS011;61307;49.628;-1.624;2024-02-23T09:50:22;6.07;;;0.98;;
73120;SDS011;61307;49.628;-1.624;2024-02-23T09:52:50;3.78;;;1.50;;
73120;SDS011;61307;49.628;-1.624;2024-02-23T09:55:17;6.47;;;2.60;;
73120;SDS011;61307;49.628;-1.624;2024-02-23T09:57:47;7.88;;;3.33;;
73120;SDS011;61307;49.628;-1.624;2024-02-23T10:00:17;7.88;;;3.65;;
73120;SDS011;61307;49.628;-1.624;2024-02-23T10:02:44;8.15;;;2.75;;
73120;SDS011;61307;49.628;-1.624;2024-02-23T10:05:11;4.47;;;2.40;;
73120;SDS011;61307;49.628;-1.624;2024-02-23T10:07:40;4.60;;;2.20;;
73120;SDS011;61307;49.628;-1.624;2024-02-23T10:10:08;12.10;;;2.17;;
73120;SDS011;61307;49.628;-1.624;2024-02-23T10:12:36;5.15;;;1.92;;
73120;SDS011;61307;49.628;-1.624;2024-02-23T10:15:05;6.03;;;1.90;;
73120;SDS011;61307;49.628;-1.624;2024-02-23T10:17:33;13.52;;;2.13;;
73120;SDS011;61307;49.628;-1.624;2024-02-23T10:19:59;4.53;;;1.88;;
73120;SDS011;61307;49.628;-1.624;2024-02-23T10:22:30;4.78;;;1.92;;
73120;SDS011;61307;49.628;-1.624;2024-02-23T10:24:57;6.00;;;1.67;;
73120;SDS011;61307;49.628;-1.624;2024-02-23T10:27:24;5.47;;;1.90;;
73120;SDS011;61307;49.628;-1.624;2024-02-23T10:29:51;5.07;;;1.80;;
73120;SDS011;61307;49.628;-1.624;2024-02-23T10:32:20;4.55;;;1.42;;
73120;SDS011;61307;49.628;-1.624;2024-02-23T10:34:47;6.25;;;1.90;;
73120;SDS011;61307;49.628;-1.624;2024-02-23T10:37:15;7.90;;;1.48;;
73120;SDS011;61307;49.628;-1.624;2024-02-23T10:39:43;12.43;;;1.80;;
73120;SDS011;61307;49.628;-1.624;2024-02-23T10:42:11;8.05;;;1.40;;
73120;SDS011;61307;49.628;-1.624;2024-02-23T10:44:42;6.28;;;1.60;;
73120;SDS011;61307;49.628;-1.624;2024-02-23T10:47:09;7.43;;;1.30;;
73120;SDS011;61307;49.628;-1.624;2024-02-23T10:49:39;8.18;;;1.20;;
73120;SDS011;61307;49.628;-1.624;2024-02-23T10:52:08;9.15;;;1.33;;
73120;SDS011;61307;49.628;-1.624;2024-02-23T10:54:37;5.05;;;1.38;;
73120;SDS011;61307;49.628;-1.624;2024-02-23T10:57:05;4.38;;;1.48;;
73120;SDS011;61307;49.628;-1.624;2024-02-23T10:59:33;9.90;;;1.67;;
73120;SDS011;61307;49.628;-1.624;2024-02-23T11:02:00;5.40;;;1.38;;
73120;SDS011;61307;49.628;-1.624;2024-02-23T11:04:29;3.67;;;0.95;;
73120;SDS011;61307;49.628;-1.624;2024-02-23T11:06:59;5.38;;;1.23;;
73120;SDS011;61307;49.628;-1.624;2024-02-23T11:09:31;3.33;;;1.25;;
73120;SDS011;61307;49.628;-1.624;2024-02-23T11:11:58;4.15;;;1.15;;
73120;SDS011;61307;49.628;-1.624;2024-02-23T11:14:30;3.78;;;1.23;;
73120;SDS011;61307;49.628;-1.624;2024-02-23T11:16:58;4.68;;;1.10;;
73120;SDS011;61307;49.628;-1.624;2024-02-23T11:19:35;3.63;;;1.10;;
73120;SDS011;61307;49.628;-1.624;2024-02-23T11:22:04;6.50;;;0.98;;
73120;SDS011;61307;49.628;-1.624;2024-02-23T11:24:41;2.83;;;1.15;;
73120;SDS011;61307;49.628;-1.624;2024-02-23T11:27:13;6.47;;;1.15;;
73120;SDS011;61307;49.628;-1.624;2024-02-23T11:29:43;3.67;;;1.20;;
73120;SDS011;61307;49.628;-1.624;2024-02-23T11:32:14;4.47;;;1.50;;
73120;SDS011;61307;49.628;-1.624;2024-02-23T11:34:41;4.18;;;1.00;;
73120;SDS011;61307;49.628;-1.624;2024-02-23T11:37:10;2.83;;;1.10;;
73120;SDS011;61307;49.628;-1.624;2024-02-23T11:39:38;3.60;;;1.02;;
73120;SDS011;61307;49.628;-1.624;2024-02-23T11:42:05;1.95;;;1.17;;
73120;SDS011;61307;49.628;-1.624;2024-02-23T11:44:33;6.35;;;1.13;;
73120;SDS011;61307;49.628;-1.624;2024-02-23T11:47:00;4.03;;;1.20;;
73120;SDS011;61307;49.628;-1.624;2024-02-23T11:49:28;5.10;;;1.02;;
73120;SDS011;61307;49.628;-1.624;2024-02-23T11:51:55;4.47;;;1.13;;
73120;SDS011;61307;49.628;-1.624;2024-02-23T11:54:24;2.97;;;1.10;;
73120;SDS011;61307;49.628;-1.624;2024-02-23T11:56:51;4.07;;;1.15;;
73120;SDS011;61307;49.628;-1.624;2024-02-23T11:59:18;3.65;;;1.20;;
73120;SDS011;61307;49.628;-1.624;2024-02-23T12:01:46;2.55;;;1.17;;
73120;SDS011;61307;49.628;-1.624;2024-02-23T12:04:13;3.55;;;0.90;;
73120;SDS011;61307;49.628;-1.624;2024-02-23T12:06:41;3.25;;;1.20;;
73120;SDS011;61307;49.628;-1.624;2024-02-23T12:09:08;5.43;;;1.60;;
73120;SDS011;61307;49.628;-1.624;2024-02-23T12:11:38;2.95;;;1.10;;
73120;SDS011;61307;49.628;-1.624;2024-02-23T12:14:05;3.67;;;1.10;;
73120;SDS011;61307;49.628;-1.624;2024-02-23T12:16:33;3.10;;;1.27;;
73120;SDS011;61307;49.628;-1.624;2024-02-23T12:19:00;2.53;;;1.15;;
73120;SDS011;61307;49.628;-1.624;2024-02-23T12:21:28;4.50;;;0.73;;
73120;SDS011;61307;49.628;-1.624;2024-02-23T12:23:55;2.25;;;1.40;;
73120;SDS011;61307;49.628;-1.624;2024-02-23T12:26:22;3.78;;;1.17;;
73120;SDS011;61307;49.628;-1.624;2024-02-23T12:28:50;3.17;;;0.93;;
73120;SDS011;61307;49.628;-1.624;2024-02-23T12:31:23;3.85;;;1.10;;
73120;SDS011;61307;49.628;-1.624;2024-02-23T12:33:51;5.68;;;1.00;;
73120;SDS011;61307;49.628;-1.624;2024-02-23T12:36:18;2.35;;;1.30;;
73120;SDS011;61307;49.628;-1.624;2024-02-23T12:38:45;1.95;;;1.20;;
73120;SDS011;61307;49.628;-1.624;2024-02-23T12:41:12;3.50;;;1.20;;
73120;SDS011;61307;49.628;-1.624;2024-02-23T12:43:39;3.42;;;1.10;;
73120;SDS011;61307;49.628;-1.624;2024-02-23T12:46:08;2.90;;;1.40;;
73120;SDS011;61307;49.628;-1.624;2024-02-23T12:48:37;2.42;;;1.15;;
73120;SDS011;61307;49.628;-1.624;2024-02-23T12:51:04;6.53;;;1.15;;
73120;SDS011;61307;49.628;-1.624;2024-02-23T12:53:31;3.90;;;1.10;;
73120;SDS011;61307;49.628;-1.624;2024-02-23T12:56:01;4.80;;;1.27;;
73120;SDS011;61307;49.628;-1.624;2024-02-23T12:58:29;2.70;;;1.20;;
73120;SDS011;61307;49.628;-1.624;2024-02-23T13:00:56;3.60;;;1.23;;
73120;SDS011;61307;49.628;-1.624;2024-02-23T13:03:25;3.28;;;1.05;;
73120;SDS011;61307;49.628;-1.624;2024-02-23T13:05:52;3.47;;;1.23;;
73120;SDS011;61307;49.628;-1.624;2024-02-23T13:08:20;3.13;;;1.20;;
73120;SDS011;61307;49.628;-1.624;2024-02-23T13:10:49;7.07;;;1.08;;
73120;SDS011;61307;49.628;-1.624;2024-02-23T13:13:16;6.95;;;1.08;;
73120;SDS011;61307;49.628;-1.624;2024-02-23T13:15:43;2.83;;;1.20;;
73120;SDS011;61307;49.628;-1.624;2024-02-23T13:18:14;5.22;;;1.30;;
73120;SDS011;61307;49.628;-1.624;2024-02-23T13:20:43;4.68;;;1.35;;
73120;SDS011;61307;49.628;-1.624;2024-02-23T13:23:15;7.18;;;1.20;;
73120;SDS011;61307;49.628;-1.624;2024-02-23T13:25:44;3.42;;;1.00;;
73120;SDS011;61307;49.628;-1.624;2024-02-23T13:28:12;4.72;;;1.30;;
73120;SDS011;61307;49.628;-1.624;2024-02-23T13:30:40;5.35;;;1.23;;
73120;SDS011;61307;49.628;-1.624;2024-02-23T13:33:07;3.17;;;1.35;;
73120;SDS011;61307;49.628;-1.624;2024-02-23T13:35:36;3.17;;;1.02;;
73120;SDS011;61307;49.628;-1.624;2024-02-23T13:38:07;3.20;;;1.00;;
73120;SDS011;61307;49.628;-1.624;2024-02-23T13:40:34;6.90;;;1.60;;
73120;SDS011;61307;49.628;-1.624;2024-02-23T13:43:01;2.28;;;1.00;;
73120;SDS011;61307;49.628;-1.624;2024-02-23T13:45:28;2.17;;;1.08;;
73120;SDS011;61307;49.628;-1.624;2024-02-23T13:47:57;3.20;;;1.10;;
73120;SDS011;61307;49.628;-1.624;2024-02-23T13:50:26;4.15;;;0.82;;
73120;SDS011;61307;49.628;-1.624;2024-02-23T13:52:54;3.50;;;1.33;;
73120;SDS011;61307;49.628;-1.624;2024-02-23T13:55:22;2.75;;;1.23;;
73120;SDS011;61307;49.628;-1.624;2024-02-23T13:57:49;3.90;;;1.02;;
73120;SDS011;61307;49.628;-1.624;2024-02-23T14:00:17;2.88;;;1.30;;
73120;SDS011;61307;49.628;-1.624;2024-02-23T14:02:45;3.97;;;1.13;;
73120;SDS011;61307;49.628;-1.624;2024-02-23T14:05:12;4.85;;;1.20;;
73120;SDS011;61307;49.628;-1.624;2024-02-23T14:07:40;5.03;;;0.90;;
73120;SDS011;61307;49.628;-1.624;2024-02-23T14:10:07;6.97;;;1.48;;
73120;SDS011;61307;49.628;-1.624;2024-02-23T14:12:36;2.63;;;1.00;;
73120;SDS011;61307;49.628;-1.624;2024-02-23T14:15:03;4.72;;;1.20;;
73120;SDS011;61307;49.628;-1.624;2024-02-23T14:17:30;4.53;;;0.85;;
73120;SDS011;61307;49.628;-1.624;2024-02-23T14:19:57;2.67;;;1.08;;
73120;SDS011;61307;49.628;-1.624;2024-02-23T14:22:24;2.40;;;0.95;;
73120;SDS011;61307;49.628;-1.624;2024-02-23T14:24:52;3.47;;;1.02;;
73120;SDS011;61307;49.628;-1.624;2024-02-23T14:27:20;3.55;;;1.20;;
73120;SDS011;61307;49.628;-1.624;2024-02-23T14:29:48;2.35;;;1.20;;
73120;SDS011;61307;49.628;-1.624;2024-02-23T14:32:15;3.92;;;1.10;;
73120;SDS011;61307;49.628;-1.624;2024-02-23T14:34:46;2.65;;;1.17;;